Time;durP1;ratioP1;P1;durP2;ratioP2;P2;SDS_P1;SDS_P2;PMS_P1;PMS_P2;Temp;Humidity;BMP_temperature;BMP_pressure;BME280_temperature;BME280_humidity;BME280_pressure;Samples;Min_cycle;Max_cycle;Signal;HPM_P1;HPM_P2
2023/03/03 00:01:44;;;;;;;;;;;;;;;2.25;100.00;100626.66;5589250;31;34390;-65
2023/03/03 00:04:53;;;;;;;;;;;;;;;2.19;100.00;100634.00;5576498;31;33380;-64
2023/03/03 00:08:04;;;;;;;;;;;;;;;2.16;100.00;100636.00;5589837;31;34708;-64
2023/03/03 00:11:15;;;;;;;;;;;;;;;2.11;100.00;100630.25;5589032;31;34786;-65
2023/03/03 00:14:31;;;;;;;;;;;;;;;2.08;100.00;100630.47;5588644;31;33083;-65
2023/03/03 00:17:40;;;;;;;;;;;;;;;2.05;100.00;100636.75;5589857;31;34092;-65
2023/03/03 00:20:51;;;;;;;;;;;;;;;1.99;100.00;100624.09;5588969;31;32841;-65
2023/03/03 00:24:11;;;;;;;;;;;;;;;1.97;100.00;100626.00;5589085;31;34382;-65
2023/03/03 00:27:30;;;;;;;;;;;;;;;1.97;100.00;100617.31;5589944;31;34125;-65
2023/03/03 00:30:41;;;;;;;;;;;;;;;1.95;100.00;100620.00;5575693;31;33136;-64
2023/03/03 00:33:53;;;;;;;;;;;;;;;2.05;100.00;100617.59;5588936;31;34701;-64
2023/03/03 00:37:04;;;;;;;;;;;;;;;2.16;100.00;100618.53;5576490;31;34643;-65
2023/03/03 00:40:15;;;;;;;;;;;;;;;2.08;100.00;100615.59;5588925;31;34327;-65
2023/03/03 00:43:26;;;;;;;;;;;;;;;2.05;100.00;100610.56;5589087;31;35535;-65
2023/03/03 00:46:36;;;;;;;;;;;;;;;2.05;100.00;100614.97;5588853;31;32688;-65
2023/03/03 00:49:45;;;;;;;;;;;;;;;1.89;100.00;100604.72;5588904;31;34211;-64
2023/03/03 00:53:04;;;;;;;;;;;;;;;1.85;100.00;100605.06;5589118;31;34273;-65
2023/03/03 00:56:14;;;;;;;;;;;;;;;2.02;100.00;100605.56;5576377;31;32951;-65
2023/03/03 00:59:20;;;;;;;;;;;;;;;2.23;100.00;100603.19;5588754;31;35478;-65
2023/03/03 01:02:28;;;;;;;;;;;;;;;2.00;100.00;100596.13;5588713;31;34317;-65
2023/03/03 01:05:35;;;;;;;;;;;;;;;1.90;100.00;100597.72;5588683;31;34329;-65
2023/03/03 01:08:50;;;;;;;;;;;;;;;1.78;100.00;100599.44;5576392;31;34087;-65
2023/03/03 01:12:00;;;;;;;;;;;;;;;1.70;100.00;100591.25;5576205;31;32914;-65
2023/03/03 01:15:14;;;;;;;;;;;;;;;1.64;100.00;100596.94;5563500;31;33580;-65
2023/03/03 01:18:20;;;;;;;;;;;;;;;1.59;100.00;100586.81;5588801;31;34877;-65
2023/03/03 01:21:27;;;;;;;;;;;;;;;1.62;100.00;100583.13;5589340;31;34659;-65
2023/03/03 01:24:34;;;;;;;;;;;;;;;1.73;100.00;100585.84;5588455;31;34272;-65
2023/03/03 01:27:44;;;;;;;;;;;;;;;1.70;100.00;100589.50;5575857;31;34364;-65
2023/03/03 01:30:54;;;;;;;;;;;;;;;1.58;100.00;100590.34;5589136;31;34298;-65
2023/03/03 01:34:04;;;;;;;;;;;;;;;1.45;100.00;100583.47;5588355;31;34306;-65
2023/03/03 01:37:14;;;;;;;;;;;;;;;1.40;100.00;100582.94;5588427;31;35163;-65
2023/03/03 01:40:24;;;;;;;;;;;;;;;1.34;100.00;100586.78;5587751;31;34466;-65
2023/03/03 01:43:33;;;;;;;;;;;;;;;1.25;100.00;100574.34;5575440;31;33654;-65
2023/03/03 01:46:59;;;;;;;;;;;;;;;1.20;100.00;100571.22;5587260;31;35129;-65
2023/03/03 01:50:10;;;;;;;;;;;;;;;1.27;100.00;100573.28;5587176;31;34767;-65
2023/03/03 01:53:22;;;;;;;;;;;;;;;1.43;100.00;100569.66;5589087;31;34906;-65
2023/03/03 01:56:35;;;;;;;;;;;;;;;1.24;100.00;100573.50;5575560;31;34641;-65
2023/03/03 01:59:48;;;;;;;;;;;;;;;1.18;100.00;100565.25;5587733;31;34930;-65
2023/03/03 02:03:00;;;;;;;;;;;;;;;1.22;100.00;100567.53;5587762;31;34816;-65
2023/03/03 02:06:12;;;;;;;;;;;;;;;1.24;100.00;100567.44;5575076;31;33607;-67
2023/03/03 02:09:32;;;;;;;;;;;;;;;1.31;100.00;100566.91;5588268;31;34121;-65
2023/03/03 02:12:52;;;;;;;;;;;;;;;1.29;100.00;100570.59;5587562;31;34143;-65
2023/03/03 02:16:04;;;;;;;;;;;;;;;1.26;100.00;100561.16;5588334;31;34908;-65
2023/03/03 02:19:35;;;;;;;;;;;;;;;1.26;100.00;100563.78;5575573;31;34541;-65
2023/03/03 02:22:52;;;;;;;;;;;;;;;1.27;100.00;100567.22;5575042;31;34714;-65
2023/03/03 02:26:05;;;;;;;;;;;;;;;1.25;100.00;100567.34;5587444;31;34600;-65
2023/03/03 02:29:14;;;;;;;;;;;;;;;1.23;100.00;100565.78;5575123;31;33389;-65
2023/03/03 02:32:23;;;;;;;;;;;;;;;1.21;100.00;100563.25;5587165;31;33981;-65
2023/03/03 02:35:37;;;;;;;;;;;;;;;1.19;100.00;100559.94;5586366;31;33728;-65
2023/03/03 02:39:08;;;;;;;;;;;;;;;1.18;100.00;100566.09;5587131;31;34683;-65
2023/03/03 02:42:21;;;;;;;;;;;;;;;1.22;100.00;100561.47;5587811;31;34369;-65
2023/03/03 02:45:33;;;;;;;;;;;;;;;1.24;100.00;100555.22;5587093;31;34954;-64
2023/03/03 02:48:44;;;;;;;;;;;;;;;1.21;100.00;100557.22;5574118;31;32862;-65
2023/03/03 02:52:00;;;;;;;;;;;;;;;1.14;100.00;100551.56;5587734;31;34868;-65
2023/03/03 02:55:10;;;;;;;;;;;;;;;1.10;100.00;100549.25;5590665;31;34325;-65
2023/03/03 02:58:18;;;;;;;;;;;;;;;1.09;100.00;100543.19;5589901;31;32802;-65
2023/03/03 03:01:25;;;;;;;;;;;;;;;1.12;100.00;100545.59;5590643;31;33823;-65
2023/03/03 03:04:35;;;;;;;;;;;;;;;1.10;100.00;100541.41;5577595;31;34185;-65
2023/03/03 03:07:45;;;;;;;;;;;;;;;1.03;100.00;100546.22;5590514;31;34185;-65
2023/03/03 03:10:55;;;;;;;;;;;;;;;1.08;100.00;100536.28;5590386;31;34918;-65
2023/03/03 03:14:07;;;;;;;;;;;;;;;1.06;100.00;100540.81;5589814;31;34284;-65
2023/03/03 03:17:17;;;;;;;;;;;;;;;1.11;100.00;100540.50;5590325;31;34393;-65
2023/03/03 03:20:27;;;;;;;;;;;;;;;1.34;100.00;100537.12;5589624;31;34040;-65
2023/03/03 03:23:36;;;;;;;;;;;;;;;1.46;100.00;100535.44;5589622;31;33547;-65
2023/03/03 03:26:45;;;;;;;;;;;;;;;1.65;100.00;100528.81;5590430;31;33975;-66
2023/03/03 03:29:54;;;;;;;;;;;;;;;1.63;100.00;100528.13;5577274;31;34747;-65
2023/03/03 03:33:02;;;;;;;;;;;;;;;1.68;100.00;100519.94;5590340;31;34332;-65
2023/03/03 03:36:10;;;;;;;;;;;;;;;1.77;100.00;100524.53;5589446;31;34903;-66
2023/03/03 03:39:17;;;;;;;;;;;;;;;1.76;100.00;100522.84;5589553;31;34044;-66
2023/03/03 03:42:26;;;;;;;;;;;;;;;1.81;100.00;100520.75;5590400;31;34518;-65
2023/03/03 03:45:34;;;;;;;;;;;;;;;1.89;100.00;100522.84;5576452;31;34981;-65
2023/03/03 03:48:44;;;;;;;;;;;;;;;1.90;100.00;100517.47;5576847;31;35786;-65
2023/03/03 03:52:00;;;;;;;;;;;;;;;1.89;100.00;100512.38;5589462;31;33748;-65
2023/03/03 03:55:09;;;;;;;;;;;;;;;1.84;100.00;100520.50;5589240;31;34224;-65
2023/03/03 03:58:18;;;;;;;;;;;;;;;1.84;100.00;100514.47;5589221;31;34891;-65
2023/03/03 04:01:27;;;;;;;;;;;;;;;1.81;100.00;100509.44;5576656;31;34290;-65
2023/03/03 04:04:37;;;;;;;;;;;;;;;1.79;100.00;100517.41;5576092;31;35660;-65
2023/03/03 04:07:46;;;;;;;;;;;;;;;1.71;100.00;100510.09;5527334;31;1967072;-65
2023/03/03 04:10:55;;;;;;;;;;;;;;;1.75;100.00;100498.47;5589915;31;34118;-65
2023/03/03 04:14:06;;;;;;;;;;;;;;;1.81;100.00;100507.66;5590059;31;34839;-65
2023/03/03 04:17:16;;;;;;;;;;;;;;;1.77;100.00;100508.84;5589168;31;34114;-66
2023/03/03 04:20:22;;;;;;;;;;;;;;;1.77;100.00;100508.00;5588977;31;34479;-65
2023/03/03 04:23:32;;;;;;;;;;;;;;;1.73;100.00;100510.00;5588872;31;34544;-65
2023/03/03 04:26:39;;;;;;;;;;;;;;;1.72;100.00;100510.94;5589833;31;34978;-65
2023/03/03 04:29:46;;;;;;;;;;;;;;;1.82;100.00;100509.34;5576385;31;32923;-64
2023/03/03 04:32:57;;;;;;;;;;;;;;;1.80;100.00;100507.75;5576594;31;33015;-66
2023/03/03 04:36:07;;;;;;;;;;;;;;;1.71;100.00;100507.47;5589297;31;34432;-66
2023/03/03 04:39:19;;;;;;;;;;;;;;;1.72;100.00;100503.09;5576555;31;33411;-66
2023/03/03 04:42:27;;;;;;;;;;;;;;;1.56;100.00;100503.31;5588913;31;34316;-65
2023/03/03 04:45:35;;;;;;;;;;;;;;;1.63;100.00;100507.19;5588720;31;34354;-66
2023/03/03 04:48:45;;;;;;;;;;;;;;;1.61;100.00;100506.44;5588630;31;34721;-66
2023/03/03 04:51:55;;;;;;;;;;;;;;;1.43;100.00;100502.53;5589524;31;34565;-66
2023/03/03 04:55:03;;;;;;;;;;;;;;;1.43;100.00;100507.75;5576295;31;33253;-66
2023/03/03 04:58:14;;;;;;;;;;;;;;;1.47;100.00;100495.28;5589423;31;34192;-65
2023/03/03 05:01:21;;;;;;;;;;;;;;;1.45;100.00;100507.66;5588551;31;35221;-65
2023/03/03 05:04:30;;;;;;;;;;;;;;;1.41;100.00;100511.41;5575885;31;34985;-65
2023/03/03 05:07:39;;;;;;;;;;;;;;;1.40;100.00;100507.97;5588528;31;33911;-65
2023/03/03 05:10:51;;;;;;;;;;;;;;;1.41;100.00;100511.41;5575532;31;34846;-66
2023/03/03 05:14:07;;;;;;;;;;;;;;;1.51;100.00;100508.03;5589224;31;34764;-66
2023/03/03 05:17:18;;;;;;;;;;;;;;;1.62;100.00;100507.28;5587922;31;34478;-66
2023/03/03 05:20:25;;;;;;;;;;;;;;;1.58;100.00;100508.47;5588430;31;33347;-66
2023/03/03 05:23:33;;;;;;;;;;;;;;;1.50;100.00;100511.59;5588304;31;34416;-66
2023/03/03 05:26:38;;;;;;;;;;;;;;;1.48;100.00;100507.44;5588288;31;34705;-66
2023/03/03 05:29:45;;;;;;;;;;;;;;;1.54;100.00;100505.22;5588347;31;34167;-66
2023/03/03 05:32:54;;;;;;;;;;;;;;;1.43;100.00;100512.97;5588141;31;34671;-66
2023/03/03 05:36:00;;;;;;;;;;;;;;;1.50;100.00;100516.00;5588514;31;34207;-66
2023/03/03 05:39:09;;;;;;;;;;;;;;;1.49;100.00;100506.50;5588127;31;34266;-67
2023/03/03 05:42:18;;;;;;;;;;;;;;;1.43;100.00;100518.19;5588130;31;33926;-66
2023/03/03 05:45:26;;;;;;;;;;;;;;;1.47;100.00;100519.66;5587851;31;34179;-66
2023/03/03 05:48:34;;;;;;;;;;;;;;;1.50;100.00;100518.63;5587796;31;34002;-66
2023/03/03 05:51:46;;;;;;;;;;;;;;;1.49;100.00;100516.94;5588867;31;32484;-66
2023/03/03 05:54:53;;;;;;;;;;;;;;;1.63;100.00;100522.03;5587812;31;34480;-66
2023/03/03 05:57:59;;;;;;;;;;;;;;;1.54;100.00;100522.69;5574601;31;34844;-66
2023/03/03 06:01:04;;;;;;;;;;;;;;;1.62;100.00;100526.44;5588504;31;34228;-67
2023/03/03 06:04:11;;;;;;;;;;;;;;;1.70;100.00;100524.09;5587767;31;34878;-67
2023/03/03 06:07:16;;;;;;;;;;;;;;;1.74;100.00;100536.03;5587351;31;35893;-67
2023/03/03 06:10:22;;;;;;;;;;;;;;;1.79;100.00;100530.50;5588170;31;34009;-67
2023/03/03 06:13:29;;;;;;;;;;;;;;;1.91;100.00;100528.78;5587183;31;33090;-66
2023/03/03 06:16:34;;;;;;;;;;;;;;;2.05;100.00;100524.22;5587445;31;34293;-66
2023/03/03 06:19:40;;;;;;;;;;;;;;;2.19;100.00;100529.31;5573898;31;34391;-66
2023/03/03 06:22:47;;;;;;;;;;;;;;;2.29;100.00;100531.25;5587684;31;34819;-66
2023/03/03 06:25:52;;;;;;;;;;;;;;;2.05;100.00;100524.22;5587826;31;35145;-66
2023/03/03 06:28:56;;;;;;;;;;;;;;;1.93;100.00;100526.91;5590579;31;34320;-66
2023/03/03 06:32:03;;;;;;;;;;;;;;;1.90;100.00;100525.31;5576952;31;33975;-66
2023/03/03 06:35:08;;;;;;;;;;;;;;;1.92;100.00;100533.06;5589662;31;34711;-66
2023/03/03 06:38:12;;;;;;;;;;;;;;;2.23;100.00;100531.72;5576862;31;34133;-66
2023/03/03 06:41:18;;;;;;;;;;;;;;;2.34;100.00;100535.22;5576746;31;33339;-66
2023/03/03 06:44:22;;;;;;;;;;;;;;;2.42;100.00;100534.66;5589411;31;33226;-66
2023/03/03 06:47:26;;;;;;;;;;;;;;;2.57;100.00;100546.59;5576896;31;34151;-66
2023/03/03 06:50:32;;;;;;;;;;;;;;;2.53;100.00;100546.00;5589515;31;33824;-66
2023/03/03 06:53:35;;;;;;;;;;;;;;;2.58;100.00;100550.91;5589976;31;34126;-67
2023/03/03 06:56:39;;;;;;;;;;;;;;;2.56;100.00;100543.19;5590085;31;34419;-66
2023/03/03 06:59:44;;;;;;;;;;;;;;;2.60;100.00;100557.72;5575806;31;33861;-66
2023/03/03 07:02:52;;;;;;;;;;;;;;;2.73;100.00;100557.62;5589562;31;34307;-66
2023/03/03 07:05:57;;;;;;;;;;;;;;;2.96;100.00;100556.75;5589512;31;33967;-67
2023/03/03 07:09:07;;;;;;;;;;;;;;;3.08;100.00;100554.16;5576422;31;33116;-66
2023/03/03 07:12:21;;;;;;;;;;;;;;;3.10;100.00;100557.53;5589119;31;34259;-67
2023/03/03 07:15:33;;;;;;;;;;;;;;;3.15;100.00;100565.87;5576491;31;34256;-67
2023/03/03 07:18:41;;;;;;;;;;;;;;;3.59;100.00;100567.69;5589167;31;34440;-67
2023/03/03 07:21:45;;;;;;;;;;;;;;;3.62;100.00;100570.94;5588564;31;34289;-67
2023/03/03 07:24:55;;;;;;;;;;;;;;;3.94;100.00;100576.28;5589334;31;34394;-66
2023/03/03 07:28:15;;;;;;;;;;;;;;;4.01;100.00;100571.41;5577039;31;35151;-66
2023/03/03 07:31:28;;;;;;;;;;;;;;;3.85;100.00;100569.97;5589870;31;34876;-66
2023/03/03 07:34:39;;;;;;;;;;;;;;;3.94;100.00;100581.53;5589873;31;34867;-65
2023/03/03 07:37:44;;;;;;;;;;;;;;;4.03;100.00;100578.19;5588896;31;34966;-66
2023/03/03 07:40:54;;;;;;;;;;;;;;;4.38;100.00;100584.09;5576077;31;33614;-66
2023/03/03 07:44:12;;;;;;;;;;;;;;;4.40;100.00;100576.09;5589376;31;34921;-67
2023/03/03 07:47:19;;;;;;;;;;;;;;;4.48;100.00;100571.06;5576485;31;33169;-67
2023/03/03 07:50:24;;;;;;;;;;;;;;;4.84;100.00;100579.53;5589779;31;33070;-67
2023/03/03 07:53:33;;;;;;;;;;;;;;;5.11;100.00;100580.69;5588786;31;34295;-67
2023/03/03 07:56:41;;;;;;;;;;;;;;;5.21;100.00;100578.12;5589090;31;34277;-68
2023/03/03 07:59:47;;;;;;;;;;;;;;;5.40;100.00;100569.53;5589152;31;34406;-67
2023/03/03 08:03:02;;;;;;;;;;;;;;;5.14;100.00;100582.22;5589094;31;34717;-67
2023/03/03 08:06:29;;;;;;;;;;;;;;;4.90;100.00;100568.50;5589177;31;34766;-70
2023/03/03 08:09:47;;;;;;;;;;;;;;;4.86;100.00;100572.34;5575911;31;35128;-67
2023/03/03 08:12:52;;;;;;;;;;;;;;;5.03;100.00;100574.41;5589053;31;34017;-66
2023/03/03 08:16:00;;;;;;;;;;;;;;;5.26;100.00;100565.44;5588997;31;33013;-66
2023/03/03 08:19:10;;;;;;;;;;;;;;;5.24;100.00;100568.19;5589781;31;34190;-66
2023/03/03 08:22:17;;;;;;;;;;;;;;;5.55;100.00;100570.84;5588943;31;34112;-67
2023/03/03 08:25:23;;;;;;;;;;;;;;;5.67;100.00;100570.62;5576206;31;34563;-66
2023/03/03 08:28:28;;;;;;;;;;;;;;;6.02;100.00;100572.03;5589170;31;34242;-67
2023/03/03 08:31:32;;;;;;;;;;;;;;;5.82;100.00;100572.91;5589215;31;34460;-67
2023/03/03 08:34:44;;;;;;;;;;;;;;;5.93;100.00;100573.69;5589680;31;33900;-68
2023/03/03 08:37:49;;;;;;;;;;;;;;;6.33;100.00;100565.75;5576226;31;33027;-68
2023/03/03 08:40:53;;;;;;;;;;;;;;;6.85;100.00;100572.44;5588994;31;34241;-68
2023/03/03 08:43:57;;;;;;;;;;;;;;;7.34;100.00;100574.06;5588819;31;34249;-67
2023/03/03 08:47:01;;;;;;;;;;;;;;;7.83;100.00;100570.31;5588767;31;34261;-67
2023/03/03 08:50:05;;;;;;;;;;;;;;;8.24;100.00;100576.06;5588633;31;34352;-68
2023/03/03 08:53:12;;;;;;;;;;;;;;;8.83;100.00;100572.91;5588581;31;34196;-68
2023/03/03 08:56:18;;;;;;;;;;;;;;;9.08;95.56;100566.84;5576189;31;34618;-68
2023/03/03 08:59:22;;;;;;;;;;;;;;;9.06;95.53;100562.66;5588768;31;33698;-68
2023/03/03 09:02:27;;;;;;;;;;;;;;;9.01;96.48;100567.59;5589437;31;34489;-68
2023/03/03 09:05:31;;;;;;;;;;;;;;;9.40;93.90;100565.38;5588920;31;34322;-66
2023/03/03 09:08:37;;;;;;;;;;;;;;;8.94;95.18;100569.19;5588503;31;34242;-68
2023/03/03 09:11:43;;;;;;;;;;;;;;;8.10;100.00;100566.81;5588538;31;34314;-68
2023/03/03 09:14:51;;;;;;;;;;;;;;;8.42;100.00;100561.12;5589436;31;34905;-68
2023/03/03 09:17:58;;;;;;;;;;;;;;;8.90;100.00;100559.91;5589278;31;35120;-67
2023/03/03 09:21:25;;;;;;;;;;;;;;;8.98;100.00;100558.16;5588323;31;35422;-67
2023/03/03 09:24:30;;;;;;;;;;;;;;;9.29;100.00;100553.28;5588412;31;35082;-68
2023/03/03 09:27:36;;;;;;;;;;;;;;;9.44;98.12;100561.47;5589219;31;35034;-67
2023/03/03 09:30:46;;;;;;;;;;;;;;;9.20;100.00;100556.81;5588414;31;34334;-67
2023/03/03 09:33:56;;;;;;;;;;;;;;;9.40;98.21;100546.84;5588126;31;35111;-68
2023/03/03 09:37:22;;;;;;;;;;;;;;;9.14;100.00;100549.50;5575702;31;34033;-67
2023/03/03 09:40:46;;;;;;;;;;;;;;;9.29;100.00;100552.44;5588951;31;34571;-67
2023/03/03 09:44:08;;;;;;;;;;;;;;;9.38;97.26;100562.09;5588911;31;34239;-68
2023/03/03 09:47:32;;;;;;;;;;;;;;;9.12;98.64;100556.75;5589123;31;34306;-67
2023/03/03 09:50:58;;;;;;;;;;;;;;;9.21;98.47;100555.84;5588119;31;33818;-68
2023/03/03 09:54:22;;;;;;;;;;;;;;;9.18;99.46;100544.72;5587732;31;33389;-67
2023/03/03 09:57:30;;;;;;;;;;;;;;;9.34;98.16;100543.03;5587891;31;34883;-68
2023/03/03 10:01:07;;;;;;;;;;;;;;;9.43;97.25;100543.91;5575064;31;33651;-67
2023/03/03 10:04:39;;;;;;;;;;;;;;;9.74;95.07;100545.06;5549836;31;32448;-67
2023/03/03 10:07:55;;;;;;;;;;;;;;;9.85;93.38;100554.56;5589150;31;34410;-67
2023/03/03 10:11:12;;;;;;;;;;;;;;;10.07;89.12;100537.28;5590761;31;34898;-68
2023/03/03 10:14:35;;;;;;;;;;;;;;;9.99;89.68;100538.87;5590297;31;33229;-67
2023/03/03 10:17:46;;;;;;;;;;;;;;;9.96;92.27;100541.03;5589600;31;34173;-68
2023/03/03 10:21:03;;;;;;;;;;;;;;;10.14;91.62;100533.81;5590030;31;35241;-68
2023/03/03 10:24:20;;;;;;;;;;;;;;;10.14;89.62;100530.31;5590206;31;34653;-68
2023/03/03 10:27:23;;;;;;;;;;;;;;;10.03;89.23;100529.63;5577033;31;34696;-67
2023/03/03 10:30:34;;;;;;;;;;;;;;;10.04;89.13;100533.09;5590791;31;34358;-67
2023/03/03 10:34:03;;;;;;;;;;;;;;;10.03;89.44;100529.63;5577412;31;35223;-70
2023/03/03 10:37:19;;;;;;;;;;;;;;;9.98;88.19;100528.44;5590644;31;34868;-67
2023/03/03 10:40:27;;;;;;;;;;;;;;;9.98;89.39;100516.00;5590795;31;34409;-67
2023/03/03 10:43:39;;;;;;;;;;;;;;;10.14;89.35;100511.75;5590655;31;34262;-68
2023/03/03 10:47:03;;;;;;;;;;;;;;;10.13;87.28;100512.75;5590025;31;33894;-68
2023/03/03 10:50:20;;;;;;;;;;;;;;;10.20;87.71;100513.81;5577726;31;33932;-69
2023/03/03 10:53:41;;;;;;;;;;;;;;;9.98;87.58;100510.72;5590515;31;34536;-66
2023/03/03 10:56:49;;;;;;;;;;;;;;;10.21;86.51;100499.56;5576812;31;34526;-69
2023/03/03 11:00:13;;;;;;;;;;;;;;;10.17;86.34;100499.03;5577327;31;32751;-68
2023/03/03 11:03:29;;;;;;;;;;;;;;;10.28;85.91;100496.09;5590509;31;34227;-67
2023/03/03 11:06:40;;;;;;;;;;;;;;;10.54;84.15;100492.47;5589391;31;34618;-67
2023/03/03 11:09:45;;;;;;;;;;;;;;;10.81;82.93;100492.97;5576859;31;32855;-68
2023/03/03 11:13:07;;;;;;;;;;;;;;;11.15;78.53;100484.81;5576804;31;36883;-68
2023/03/03 11:16:25;;;;;;;;;;;;;;;11.48;76.24;100469.59;5590600;31;35025;-68
2023/03/03 11:19:47;;;;;;;;;;;;;;;11.89;72.68;100472.97;5590111;31;34668;-68
2023/03/03 11:23:09;;;;;;;;;;;;;;;12.94;65.62;100472.22;5590448;31;34764;-69
2023/03/03 11:26:17;;;;;;;;;;;;;;;16.28;53.94;100480.09;5576573;31;35767;-69
2023/03/03 11:29:28;;;;;;;;;;;;;;;19.12;44.06;100467.47;5589706;31;34074;-70
2023/03/03 11:32:39;;;;;;;;;;;;;;;18.82;42.96;100457.37;5589997;31;34227;-69
2023/03/03 11:35:47;;;;;;;;;;;;;;;17.43;47.05;100456.41;5576337;31;35358;-69
2023/03/03 11:38:57;;;;;;;;;;;;;;;19.64;40.55;100456.19;5589045;31;34368;-70
2023/03/03 11:42:20;;;;;;;;;;;;;;;20.34;38.78;100459.22;5589133;31;34226;-69
2023/03/03 11:45:33;;;;;;;;;;;;;;;20.26;38.64;100452.25;5589852;31;34555;-69
2023/03/03 11:48:42;;;;;;;;;;;;;;;18.56;41.24;100452.22;5576458;31;33031;-69
2023/03/03 11:51:55;;;;;;;;;;;;;;;17.26;43.69;100439.16;5589138;31;33333;-69
2023/03/03 11:55:06;;;;;;;;;;;;;;;15.62;48.04;100447.78;5576894;31;33655;-69
2023/03/03 11:58:11;;;;;;;;;;;;;;;15.79;48.33;100441.03;5589180;31;34912;-69
2023/03/03 12:01:22;;;;;;;;;;;;;;;15.08;51.04;100435.09;5589941;31;34323;-69
2023/03/03 12:04:29;;;;;;;;;;;;;;;14.59;52.01;100431.62;5589060;31;34329;-69
2023/03/03 12:07:52;;;;;;;;;;;;;;;14.20;53.59;100432.88;5588949;31;34185;-68
2023/03/03 12:10:59;;;;;;;;;;;;;;;13.63;56.81;100424.84;5589606;31;34328;-68
2023/03/03 12:14:03;;;;;;;;;;;;;;;13.83;56.60;100422.44;5576303;31;32755;-68
2023/03/03 12:17:23;;;;;;;;;;;;;;;13.90;57.48;100416.13;5575865;31;33416;-69
2023/03/03 12:20:35;;;;;;;;;;;;;;;17.16;47.53;100414.62;5588417;31;34539;-69
2023/03/03 12:23:42;;;;;;;;;;;;;;;20.96;39.40;100419.25;5576241;31;33409;-70
2023/03/03 12:26:53;;;;;;;;;;;;;;;18.58;43.10;100412.53;5588835;31;33547;-70
2023/03/03 12:30:09;;;;;;;;;;;;;;;19.49;40.45;100402.75;5589075;31;34837;-69
2023/03/03 12:33:21;;;;;;;;;;;;;;;18.84;41.41;100406.91;5576210;31;33660;-68
2023/03/03 12:36:43;;;;;;;;;;;;;;;20.67;36.41;100402.13;5588703;31;33558;-68
2023/03/03 12:40:10;;;;;;;;;;;;;;;20.41;37.08;100406.06;5588864;31;33957;-68
2023/03/03 12:43:34;;;;;;;;;;;;;;;18.89;38.59;100415.12;5585096;31;34183;-68
2023/03/03 12:46:44;;;;;;;;;;;;;;;19.44;38.21;100417.91;5589596;31;34421;-67
2023/03/03 12:49:48;;;;;;;;;;;;;;;17.98;39.33;100413.91;5588689;31;33749;-68
2023/03/03 12:53:22;;;;;;;;;;;;;;;17.21;41.58;100409.47;5589643;31;34379;-70
2023/03/03 12:56:33;;;;;;;;;;;;;;;15.57;43.64;100404.75;5589760;31;34179;-68
2023/03/03 13:00:13;;;;;;;;;;;;;;;14.51;46.64;100402.41;5588857;31;35019;-67
2023/03/03 13:03:40;;;;;;;;;;;;;;;14.69;46.21;100410.75;5513539;31;34863;-68
2023/03/03 13:07:00;;;;;;;;;;;;;;;16.05;43.66;100405.53;5589164;31;34866;-67
2023/03/03 13:10:05;;;;;;;;;;;;;;;15.22;45.10;100396.75;5588205;31;34308;-68
2023/03/03 13:13:16;;;;;;;;;;;;;;;15.07;44.69;100395.19;5588451;31;34838;-67
2023/03/03 13:16:24;;;;;;;;;;;;;;;15.93;43.33;100396.41;5588680;31;33987;-67
2023/03/03 13:19:56;;;;;;;;;;;;;;;17.47;38.88;100384.41;5589224;31;34818;-67
2023/03/03 13:23:08;;;;;;;;;;;;;;;17.03;39.51;100388.69;5588900;31;34236;-68
2023/03/03 13:26:15;;;;;;;;;;;;;;;16.87;39.61;100387.25;5575910;31;34968;-68
2023/03/03 13:29:23;;;;;;;;;;;;;;;16.47;39.40;100386.41;5588512;31;34109;-68
2023/03/03 13:32:41;;;;;;;;;;;;;;;16.28;39.59;100370.34;5589299;31;34275;-67
2023/03/03 13:36:04;;;;;;;;;;;;;;;15.25;42.02;100378.66;5587915;31;34560;-66
2023/03/03 13:39:16;;;;;;;;;;;;;;;14.41;43.95;100378.72;5575367;31;32846;-66
2023/03/03 13:42:21;;;;;;;;;;;;;;;13.84;45.80;100366.25;5575041;31;32773;-67
2023/03/03 13:45:31;;;;;;;;;;;;;;;13.54;46.53;100361.16;5587815;31;33093;-67
2023/03/03 13:48:51;;;;;;;;;;;;;;;13.83;45.38;100369.91;5588534;31;34830;-68
2023/03/03 13:51:57;;;;;;;;;;;;;;;14.10;44.30;100364.84;5588456;31;34885;-66
2023/03/03 13:55:05;;;;;;;;;;;;;;;14.42;44.29;100361.69;5588716;31;35061;-66
2023/03/03 13:58:23;;;;;;;;;;;;;;;14.96;43.03;100358.38;5587727;31;34103;-69
2023/03/03 14:01:51;;;;;;;;;;;;;;;14.81;42.60;100354.97;5587990;31;34153;-66
2023/03/03 14:05:03;;;;;;;;;;;;;;;14.35;44.76;100358.91;5587538;31;33625;-67
2023/03/03 14:08:11;;;;;;;;;;;;;;;14.03;46.18;100353.28;5587677;31;34110;-67
2023/03/03 14:11:38;;;;;;;;;;;;;;;13.56;47.25;100354.63;5588486;31;34274;-67
2023/03/03 14:14:45;;;;;;;;;;;;;;;13.21;48.46;100358.94;5587707;31;34809;-68
2023/03/03 14:18:21;;;;;;;;;;;;;;;13.34;48.25;100350.28;5587559;31;34328;-67
2023/03/03 14:21:37;;;;;;;;;;;;;;;13.12;48.89;100349.37;5547165;31;33312;-67
2023/03/03 14:25:01;;;;;;;;;;;;;;;13.02;49.19;100343.50;5587530;31;34165;-67
2023/03/03 14:28:12;;;;;;;;;;;;;;;12.48;49.95;100350.88;5586953;31;35041;-67
2023/03/03 14:31:21;;;;;;;;;;;;;;;12.58;50.01;100343.47;5586926;31;34840;-67
2023/03/03 14:34:27;;;;;;;;;;;;;;;12.29;50.04;100336.25;5574170;31;34057;-67
2023/03/03 14:37:42;;;;;;;;;;;;;;;12.29;50.28;100332.75;5587749;31;34158;-67
2023/03/03 14:40:48;;;;;;;;;;;;;;;12.16;50.50;100330.69;5574198;31;34887;-67
2023/03/03 14:43:58;;;;;;;;;;;;;;;12.04;51.17;100326.81;5587410;31;34318;-67
2023/03/03 14:47:12;;;;;;;;;;;;;;;12.12;51.07;100327.56;5587456;31;34686;-67
2023/03/03 14:50:32;;;;;;;;;;;;;;;12.10;51.55;100331.44;5590706;31;34842;-66
2023/03/03 14:53:38;;;;;;;;;;;;;;;12.09;51.11;100329.78;5589769;31;32805;-65
2023/03/03 14:56:56;;;;;;;;;;;;;;;11.79;51.86;100334.12;5590768;31;34394;-65
2023/03/03 15:00:10;;;;;;;;;;;;;;;11.60;53.05;100330.09;5589995;31;35135;-66
2023/03/03 15:03:25;;;;;;;;;;;;;;;11.20;53.98;100333.78;5589377;31;34222;-66
2023/03/03 15:06:34;;;;;;;;;;;;;;;10.69;55.92;100328.97;5590188;31;34324;-66
2023/03/03 15:09:47;;;;;;;;;;;;;;;10.79;55.67;100330.47;5589872;31;34018;-66
2023/03/03 15:12:54;;;;;;;;;;;;;;;10.85;55.24;100343.03;5589611;31;34181;-66
2023/03/03 15:16:00;;;;;;;;;;;;;;;10.80;55.63;100336.56;5589493;31;34334;-66
2023/03/03 15:19:18;;;;;;;;;;;;;;;10.80;55.92;100339.22;5589699;31;34285;-66
2023/03/03 15:22:45;;;;;;;;;;;;;;;10.84;55.93;100340.56;5589190;31;34764;-66
2023/03/03 15:25:58;;;;;;;;;;;;;;;10.72;56.49;100341.91;5590087;31;34229;-66
2023/03/03 15:29:22;;;;;;;;;;;;;;;10.58;56.45;100351.38;5589224;31;34702;-66
2023/03/03 15:32:28;;;;;;;;;;;;;;;10.48;56.85;100349.91;5588730;31;35149;-66
2023/03/03 15:35:44;;;;;;;;;;;;;;;10.38;56.87;100340.31;5588999;31;34220;-67
2023/03/03 15:38:55;;;;;;;;;;;;;;;10.22;57.49;100355.37;5588963;31;34372;-66
2023/03/03 15:42:06;;;;;;;;;;;;;;;10.13;56.54;100351.88;5589878;31;34334;-66
2023/03/03 15:45:15;;;;;;;;;;;;;;;10.03;56.84;100353.84;5589937;31;34282;-66
2023/03/03 15:48:39;;;;;;;;;;;;;;;9.95;57.29;100356.50;5589904;31;34797;-66
2023/03/03 15:51:48;;;;;;;;;;;;;;;9.90;57.18;100362.31;5589822;31;34756;-66
2023/03/03 15:55:14;;;;;;;;;;;;;;;9.83;57.54;100353.34;5589609;31;34463;-65
2023/03/03 15:58:22;;;;;;;;;;;;;;;9.75;57.75;100350.69;5589798;31;34958;-66
2023/03/03 16:01:31;;;;;;;;;;;;;;;9.73;57.93;100360.59;5588928;31;34897;-66
2023/03/03 16:04:44;;;;;;;;;;;;;;;9.58;58.38;100359.59;5588354;31;33058;-67
2023/03/03 16:07:58;;;;;;;;;;;;;;;9.44;59.03;100368.16;5588852;31;34585;-66
2023/03/03 16:11:15;;;;;;;;;;;;;;;9.39;59.39;100373.13;5589826;31;34161;-66
2023/03/03 16:14:37;;;;;;;;;;;;;;;9.23;60.17;100368.59;5589751;31;34235;-66
2023/03/03 16:17:52;;;;;;;;;;;;;;;9.20;59.86;100374.19;5589656;31;34274;-67
2023/03/03 16:21:25;;;;;;;;;;;;;;;9.06;60.34;100374.78;5589495;31;34889;-68
2023/03/03 16:24:32;;;;;;;;;;;;;;;8.87;61.75;100385.59;5561400;31;33274;-68
2023/03/03 16:27:57;;;;;;;;;;;;;;;8.76;62.45;100378.78;5589633;31;34808;-67